Time,TemperatureF,DewpointF,PressureIn,WindDirection,WindDirectionDegrees,WindSpeedMPH,WindSpeedGustMPH,Humidity,HourlyPrecipIn,Conditions,Clouds,dailyrainin,SoftwareType,DateUTC
2013-07-24 00:05:00,60.6,59.0,29.91,ESE,112,0.0,0.0,91,0.00,,,0.00,WeatherTracker,2013-07-24 07:05:00,
2013-07-24 00:10:00,60.6,59.0,29.91,ESE,112,0.0,0.0,91,0.00,,,0.00,WeatherTracker,2013-07-24 07:10:00,
2013-07-24 00:15:00,60.4,57.2,29.91,SE,135,0.0,0.0,91,0.00,,,0.00,WeatherTracker,2013-07-24 07:15:00,
2013-07-24 00:20:00,60.4,57.2,29.91,SE,135,0.0,0.0,91,0.00,,,0.00,WeatherTracker,2013-07-24 07:20:00,
2013-07-24 00:30:00,60.3,57.2,29.91,ESE,112,0.0,0.0,91,0.00,,,0.00,WeatherTracker,2013-07-24 07:30:00,
2013-07-24 00:40:00,60.1,57.2,29.91,SE,135,0.0,0.0,91,0.00,,,0.00,WeatherTracker,2013-07-24 07:40:00,
2013-07-24 00:45:00,60.1,57.2,29.91,SE,135,0.0,0.0,91,0.00,,,0.00,WeatherTracker,2013-07-24 07:45:00,
2013-07-24 00:50:00,60.3,57.2,29.94,ESE,112,0.0,0.0,91,0.00,,,0.00,WeatherTracker,2013-07-24 07:50:00,
2013-07-24 00:55:00,60.1,57.2,29.94,SE,135,0.0,0.0,91,0.00,,,0.00,WeatherTracker,2013-07-24 07:55:00,
2013-07-24 01:05:00,60.1,57.2,29.91,ESE,112,0.0,0.0,92,0.00,,,0.00,WeatherTracker,2013-07-24 08:05:00,
2013-07-24 01:15:00,60.1,57.2,29.91,SE,135,0.0,0.0,92,0.00,,,0.00,WeatherTracker,2013-07-24 08:15:00,
2013-07-24 01:20:00,59.9,57.2,29.91,SE,135,0.0,0.0,92,0.00,,,0.00,WeatherTracker,2013-07-24 08:20:00,
2013-07-24 01:25:00,59.9,57.2,29.91,SE,135,0.0,0.0,92,0.00,,,0.00,WeatherTracker,2013-07-24 08:25:00,
2013-07-24 01:30:00,59.7,57.2,29.91,SSE,157,0.0,0.0,92,0.00,,,0.00,WeatherTracker,2013-07-24 08:30:00,
2013-07-24 01:40:00,59.7,57.2,29.91,SE,135,0.0,0.0,92,0.00,,,0.00,WeatherTracker,2013-07-24 08:40:00,
2013-07-24 01:50:00,60.1,59.0,29.91,ESE,112,0.0,0.0,93,0.00,,,0.00,WeatherTracker,2013-07-24 08:50:00,
2013-07-24 01:55:00,59.7,57.2,29.91,ESE,112,0.0,0.0,93,0.00,,,0.00,WeatherTracker,2013-07-24 08:55:00,
2013-07-24 02:00:00,59.7,57.2,29.91,East,90,0.0,0.0,93,0.00,,,0.00,WeatherTracker,2013-07-24 09:00:00,
2013-07-24 02:10:00,59.5,57.2,29.91,East,90,0.0,0.0,93,0.00,,,0.00,WeatherTracker,2013-07-24 09:10:00,
2013-07-24 02:15:00,59.7,57.2,29.91,SSE,157,0.0,0.0,93,0.00,,,0.00,WeatherTracker,2013-07-24 09:15:00,
2013-07-24 02:25:00,59.5,57.2,29.91,SSE,157,0.0,0.0,93,0.00,,,0.00,WeatherTracker,2013-07-24 09:25:00,
2013-07-24 02:30:00,59.2,57.2,29.91,ESE,112,0.0,0.0,92,0.00,,,0.00,WeatherTracker,2013-07-24 09:30:00,
2013-07-24 02:35:00,59.2,57.2,29.91,East,90,0.0,0.0,92,0.00,,,0.00,WeatherTracker,2013-07-24 09:35:00,
2013-07-24 02:45:00,58.8,57.2,29.91,SE,135,0.0,0.0,93,0.00,,,0.00,WeatherTracker,2013-07-24 09:45:00,
2013-07-24 02:50:00,58.6,57.2,29.91,SE,135,0.0,0.0,93,0.00,,,0.00,WeatherTracker,2013-07-24 09:50:00,
2013-07-24 02:55:00,58.5,57.2,29.91,SE,135,0.0,0.0,93,0.00,,,0.00,WeatherTracker,2013-07-24 09:55:00,
2013-07-24 03:00:00,58.5,57.2,29.91,ESE,112,0.0,0.0,93,0.00,,,0.00,WeatherTracker,2013-07-24 10:00:00,
2013-07-24 03:05:00,58.6,57.2,29.91,ESE,112,0.0,0.0,93,0.00,,,0.00,WeatherTracker,2013-07-24 10:05:00,
2013-07-24 03:10:00,58.6,57.2,29.91,SE,135,0.0,0.0,93,0.00,,,0.00,WeatherTracker,2013-07-24 10:10:00,
2013-07-24 03:15:00,58.5,57.2,29.91,ESE,112,0.0,0.0,93,0.00,,,0.00,WeatherTracker,2013-07-24 10:15:00,
2013-07-24 03:25:00,59.2,57.2,29.91,East,90,0.0,0.0,93,0.00,,,0.00,WeatherTracker,2013-07-24 10:25:00,
2013-07-24 03:35:00,58.8,57.2,29.91,ESE,112,0.0,0.0,93,0.00,,,0.00,WeatherTracker,2013-07-24 10:35:00,
2013-07-24 03:45:00,58.8,57.2,29.91,SE,135,1.0,1.0,93,0.00,,,0.00,WeatherTracker,2013-07-24 10:45:00,
2013-07-24 03:50:00,58.6,57.2,29.91,SE,135,0.0,0.0,94,0.00,,,0.00,WeatherTracker,2013-07-24 10:50:00,
2013-07-24 04:00:00,58.5,57.2,29.91,SE,135,0.0,0.0,94,0.00,,,0.00,WeatherTracker,2013-07-24 11:00:00,
2013-07-24 04:10:00,58.3,57.2,29.91,ESE,112,0.0,0.0,94,0.00,,,0.00,WeatherTracker,2013-07-24 11:10:00,
2013-07-24 04:20:00,58.3,57.2,29.91,SE,135,0.0,0.0,94,0.00,,,0.00,WeatherTracker,2013-07-24 11:20:00,
2013-07-24 04:25:00,58.3,57.2,29.91,SE,135,0.0,0.0,94,0.00,,,0.00,WeatherTracker,2013-07-24 11:25:00,
2013-07-24 04:35:00,58.1,57.2,29.91,ESE,112,0.0,0.0,94,0.00,,,0.00,WeatherTracker,2013-07-24 11:35:00,
2013-07-24 04:45:00,57.7,55.4,29.91,SE,135,0.0,0.0,94,0.00,,,0.00,WeatherTracker,2013-07-24 11:45:00,
2013-07-24 04:55:00,57.7,55.4,29.94,SSE,157,1.0,1.0,94,0.00,,,0.00,WeatherTracker,2013-07-24 11:55:00,
2013-07-24 05:00:00,57.6,55.4,29.94,SE,135,0.0,0.0,94,0.00,,,0.00,WeatherTracker,2013-07-24 12:00:00,
2013-07-24 05:10:00,57.4,55.4,29.91,SE,135,0.0,0.0,94,0.00,,,0.00,WeatherTracker,2013-07-24 12:10:00,
2013-07-24 05:20:00,57.2,55.4,29.91,East,90,0.0,0.0,94,0.00,,,0.00,WeatherTracker,2013-07-24 12:20:00,
2013-07-24 05:25:00,57.2,55.4,29.91,East,90,0.0,0.0,94,0.00,,,0.00,WeatherTracker,2013-07-24 12:25:00,
2013-07-24 05:30:00,57.4,55.4,29.91,ESE,112,0.0,0.0,94,0.00,,,0.00,WeatherTracker,2013-07-24 12:30:00,
2013-07-24 05:35:00,57.2,55.4,29.91,SE,135,0.0,0.0,94,0.00,,,0.00,WeatherTracker,2013-07-24 12:35:00,
2013-07-24 05:45:00,57.2,55.4,29.91,ESE,112,0.0,0.0,94,0.00,,,0.00,WeatherTracker,2013-07-24 12:45:00,
2013-07-24 05:50:00,57.2,55.4,29.94,ESE,112,0.0,0.0,94,0.00,,,0.00,WeatherTracker,2013-07-24 12:50:00,
2013-07-24 05:55:00,57.4,55.4,29.94,East,90,0.0,0.0,94,0.00,,,0.00,WeatherTracker,2013-07-24 12:55:00,
2013-07-24 06:00:00,57.9,57.2,29.94,ENE,67,0.0,0.0,95,0.00,,,0.00,WeatherTracker,2013-07-24 13:00:00,
2013-07-24 06:05:00,57.7,57.2,29.94,East,90,0.0,0.0,95,0.00,,,0.00,WeatherTracker,2013-07-24 13:05:00,
2013-07-24 06:10:00,57.6,57.2,29.94,ESE,112,0.0,0.0,95,0.00,,,0.00,WeatherTracker,2013-07-24 13:10:00,
2013-07-24 06:20:00,57.7,57.2,29.94,East,90,0.0,0.0,95,0.00,,,0.00,WeatherTracker,2013-07-24 13:20:00,
2013-07-24 06:30:00,58.5,57.2,29.94,ENE,67,0.0,0.0,95,0.00,,,0.00,WeatherTracker,2013-07-24 13:30:00,
2013-07-24 06:35:00,58.5,57.2,29.97,East,90,0.0,0.0,95,0.00,,,0.00,WeatherTracker,2013-07-24 13:35:00,
2013-07-24 06:40:00,58.6,57.2,29.97,East,90,0.0,0.0,95,0.00,,,0.00,WeatherTracker,2013-07-24 13:40:00,
2013-07-24 06:45:00,58.8,57.2,29.97,East,90,0.0,0.0,95,0.00,,,0.00,WeatherTracker,2013-07-24 13:45:00,
2013-07-24 06:55:00,61.5,60.8,29.94,ENE,67,0.0,0.0,96,0.00,,,0.00,WeatherTracker,2013-07-24 13:55:00,
2013-07-24 07:05:00,64.2,64.4,29.94,NNE,22,0.0,0.0,96,0.00,,,0.00,WeatherTracker,2013-07-24 14:05:00,
2013-07-24 07:10:00,65.1,64.4,29.94,NNE,22,0.0,0.0,95,0.00,,,0.00,WeatherTracker,2013-07-24 14:10:00,
2013-07-24 07:15:00,66.2,64.4,29.94,NNE,22,0.0,0.0,93,0.00,,,0.00,WeatherTracker,2013-07-24 14:15:00,
2013-07-24 07:25:00,67.3,64.4,29.94,North,0,0.0,2.0,89,0.00,,,0.00,WeatherTracker,2013-07-24 14:25:00,
2013-07-24 07:30:00,68.0,62.6,29.94,NNE,22,0.0,0.0,83,0.00,,,0.00,WeatherTracker,2013-07-24 14:30:00,
2013-07-24 07:40:00,68.9,62.6,29.94,North,0,0.0,0.0,79,0.00,,,0.00,WeatherTracker,2013-07-24 14:40:00,
2013-07-24 07:45:00,69.1,60.8,29.94,NNW,337,1.0,3.0,74,0.00,,,0.00,WeatherTracker,2013-07-24 14:45:00,
2013-07-24 07:50:00,69.3,59.0,29.94,West,270,2.0,2.0,71,0.00,,,0.00,WeatherTracker,2013-07-24 14:50:00,
2013-07-24 07:55:00,69.8,60.8,29.94,NNW,337,0.0,0.0,72,0.00,,,0.00,WeatherTracker,2013-07-24 14:55:00,
2013-07-24 08:05:00,70.2,59.0,29.97,NNE,22,0.0,2.0,69,0.00,,,0.00,WeatherTracker,2013-07-24 15:05:00,
2013-07-24 08:15:00,70.2,59.0,29.97,North,0,2.0,2.0,66,0.00,,,0.00,WeatherTracker,2013-07-24 15:15:00,
2013-07-24 08:20:00,70.5,59.0,29.97,NW,315,3.0,3.0,66,0.00,,,0.00,WeatherTracker,2013-07-24 15:20:00,
2013-07-24 08:25:00,70.5,57.2,29.97,North,0,3.0,0.0,64,0.00,,,0.00,WeatherTracker,2013-07-24 15:25:00,
2013-07-24 08:30:00,70.5,57.2,29.97,WNW,292,1.0,1.0,64,0.00,,,0.00,WeatherTracker,2013-07-24 15:30:00,
2013-07-24 08:40:00,70.2,57.2,29.97,NNW,337,1.0,2.0,63,0.00,,,0.00,WeatherTracker,2013-07-24 15:40:00,
2013-07-24 08:50:00,68.2,55.4,29.97,NW,315,3.0,3.0,66,0.00,,,0.00,WeatherTracker,2013-07-24 15:50:00,
2013-07-24 08:55:00,68.5,57.2,29.97,NNW,337,3.0,4.0,68,0.00,,,0.00,WeatherTracker,2013-07-24 15:55:00,
2013-07-24 09:00:00,68.5,57.2,29.97,ENE,67,2.0,3.0,68,0.00,,,0.00,WeatherTracker,2013-07-24 16:00:00,
2013-07-24 09:05:00,68.9,59.0,29.97,NNW,337,0.0,2.0,69,0.00,,,0.00,WeatherTracker,2013-07-24 16:05:00,
2013-07-24 09:15:00,70.9,59.0,29.97,West,270,2.0,4.0,66,0.00,,,0.00,WeatherTracker,2013-07-24 16:15:00,
2013-07-24 09:20:00,71.8,59.0,29.97,West,270,2.0,2.0,64,0.00,,,0.00,WeatherTracker,2013-07-24 16:20:00,
2013-07-24 09:25:00,71.8,57.2,29.97,WNW,292,3.0,3.0,62,0.00,,,0.00,WeatherTracker,2013-07-24 16:25:00,
2013-07-24 09:30:00,72.3,57.2,29.97,WNW,292,3.0,3.0,60,0.00,,,0.00,WeatherTracker,2013-07-24 16:30:00,
2013-07-24 09:35:00,73.0,57.2,29.97,NNW,337,3.0,3.0,59,0.00,,,0.00,WeatherTracker,2013-07-24 16:35:00,
2013-07-24 09:40:00,73.6,57.2,29.97,WNW,292,3.0,3.0,56,0.00,,,0.00,WeatherTracker,2013-07-24 16:40:00,
2013-07-24 09:50:00,74.1,55.4,29.97,SE,135,3.0,3.0,53,0.00,,,0.00,WeatherTracker,2013-07-24 16:50:00,
2013-07-24 10:00:00,75.2,57.2,29.97,West,270,2.0,6.0,52,0.00,,,0.00,WeatherTracker,2013-07-24 17:00:00,
2013-07-24 10:05:00,75.6,57.2,29.97,NW,315,3.0,3.0,52,0.00,,,0.00,WeatherTracker,2013-07-24 17:05:00,
2013-07-24 10:10:00,75.9,57.2,29.97,WNW,292,3.0,4.0,53,0.00,,,0.00,WeatherTracker,2013-07-24 17:10:00,
2013-07-24 10:15:00,76.3,57.2,29.97,North,0,4.0,4.0,52,0.00,,,0.00,WeatherTracker,2013-07-24 17:15:00,
2013-07-24 10:25:00,76.8,57.2,29.97,WNW,292,3.0,4.0,49,0.00,,,0.00,WeatherTracker,2013-07-24 17:25:00,
2013-07-24 10:35:00,77.0,57.2,29.97,North,0,3.0,3.0,49,0.00,,,0.00,WeatherTracker,2013-07-24 17:35:00,
2013-07-24 10:40:00,77.4,55.4,29.97,West,270,4.0,4.0,47,0.00,,,0.00,WeatherTracker,2013-07-24 17:40:00,
2013-07-24 10:45:00,77.5,55.4,29.97,WNW,292,3.0,5.0,47,0.00,,,0.00,WeatherTracker,2013-07-24 17:45:00,
2013-07-24 10:50:00,78.3,57.2,29.97,North,0,3.0,3.0,48,0.00,,,0.00,WeatherTracker,2013-07-24 17:50:00,
2013-07-24 11:00:00,78.6,57.2,29.97,WNW,292,4.0,5.0,46,0.00,,,0.00,WeatherTracker,2013-07-24 18:00:00,
2013-07-24 11:05:00,78.6,57.2,29.97,North,0,3.0,3.0,47,0.00,,,0.00,WeatherTracker,2013-07-24 18:05:00,
2013-07-24 11:10:00,78.3,57.2,29.97,NNW,337,4.0,4.0,47,0.00,,,0.00,WeatherTracker,2013-07-24 18:10:00,
2013-07-24 11:20:00,78.4,57.2,29.97,NW,315,3.0,4.0,48,0.00,,,0.00,WeatherTracker,2013-07-24 18:20:00,
2013-07-24 11:25:00,79.0,57.2,29.97,WNW,292,3.0,4.0,48,0.00,,,0.00,WeatherTracker,2013-07-24 18:25:00,
2013-07-24 11:35:00,79.7,59.0,29.97,WNW,292,3.0,3.0,47,0.00,,,0.00,WeatherTracker,2013-07-24 18:35:00,
2013-07-24 11:45:00,79.7,59.0,29.97,North,0,3.0,3.0,47,0.00,,,0.00,WeatherTracker,2013-07-24 18:45:00,
2013-07-24 11:50:00,80.2,57.2,29.97,WNW,292,3.0,4.0,46,0.00,,,0.00,WeatherTracker,2013-07-24 18:50:00,
2013-07-24 11:55:00,79.9,57.2,29.97,WNW,292,5.0,5.0,45,0.00,,,0.00,WeatherTracker,2013-07-24 18:55:00,
2013-07-24 12:05:00,81.0,59.0,29.97,NW,315,2.0,3.0,45,0.00,,,0.00,WeatherTracker,2013-07-24 19:05:00,
2013-07-24 12:10:00,81.0,59.0,29.97,North,0,2.0,2.0,46,0.00,,,0.00,WeatherTracker,2013-07-24 19:10:00,
2013-07-24 12:20:00,80.6,57.2,29.97,WNW,292,3.0,3.0,45,0.00,,,0.00,WeatherTracker,2013-07-24 19:20:00,
2013-07-24 12:25:00,80.8,57.2,29.97,NW,315,3.0,3.0,45,0.00,,,0.00,WeatherTracker,2013-07-24 19:25:00,
2013-07-24 12:30:00,81.3,59.0,29.97,West,270,3.0,3.0,46,0.00,,,0.00,WeatherTracker,2013-07-24 19:30:00,
2013-07-24 12:35:00,81.1,59.0,29.97,NNW,337,3.0,4.0,46,0.00,,,0.00,WeatherTracker,2013-07-24 19:35:00,
2013-07-24 12:45:00,81.9,59.0,29.97,NW,315,3.0,4.0,46,0.00,,,0.00,WeatherTracker,2013-07-24 19:45:00,
2013-07-24 12:55:00,83.7,59.0,29.97,NNW,337,2.0,4.0,43,0.00,,,0.00,WeatherTracker,2013-07-24 19:55:00,
2013-07-24 13:00:00,81.9,57.2,29.97,West,270,4.0,5.0,42,0.00,,,0.00,WeatherTracker,2013-07-24 20:00:00,
2013-07-24 13:10:00,83.3,59.0,29.97,North,0,3.0,4.0,42,0.00,,,0.00,WeatherTracker,2013-07-24 20:10:00,
2013-07-24 13:20:00,82.2,57.2,29.97,WNW,292,4.0,4.0,42,0.00,,,0.00,WeatherTracker,2013-07-24 20:20:00,
2013-07-24 13:30:00,84.0,59.0,29.97,North,0,3.0,3.0,41,0.00,,,0.00,WeatherTracker,2013-07-24 20:30:00,
2013-07-24 13:40:00,84.9,57.2,29.97,NW,315,3.0,5.0,40,0.00,,,0.00,WeatherTracker,2013-07-24 20:40:00,
2013-07-24 13:45:00,85.8,59.0,29.97,NNW,337,3.0,3.0,40,0.00,,,0.00,WeatherTracker,2013-07-24 20:45:00,
2013-07-24 13:55:00,85.3,59.0,29.97,NNW,337,2.0,4.0,41,0.00,,,0.00,WeatherTracker,2013-07-24 20:55:00,
2013-07-24 14:05:00,84.9,57.2,29.97,WNW,292,4.0,4.0,40,0.00,,,0.00,WeatherTracker,2013-07-24 21:05:00,
2013-07-24 14:10:00,84.2,59.0,29.97,North,0,3.0,5.0,41,0.00,,,0.00,WeatherTracker,2013-07-24 21:10:00,
2013-07-24 14:15:00,83.5,59.0,29.97,NW,315,4.0,4.0,42,0.00,,,0.00,WeatherTracker,2013-07-24 21:15:00,
2013-07-24 14:20:00,83.5,59.0,29.97,NW,315,4.0,4.0,42,0.00,,,0.00,WeatherTracker,2013-07-24 21:20:00,
2013-07-24 14:30:00,83.1,59.0,29.97,NNW,337,3.0,4.0,43,0.00,,,0.00,WeatherTracker,2013-07-24 21:30:00,
2013-07-24 14:35:00,82.0,59.0,29.97,NNW,337,3.0,5.0,45,0.00,,,0.00,WeatherTracker,2013-07-24 21:35:00,
2013-07-24 14:40:00,80.8,59.0,29.97,WNW,292,2.0,3.0,46,0.00,,,0.00,WeatherTracker,2013-07-24 21:40:00,
2013-07-24 14:45:00,79.5,59.0,29.97,NNW,337,4.0,5.0,48,0.00,,,0.00,WeatherTracker,2013-07-24 21:45:00,
2013-07-24 14:50:00,80.1,59.0,29.97,NW,315,3.0,4.0,49,0.00,,,0.00,WeatherTracker,2013-07-24 21:50:00,
2013-07-24 15:00:00,79.5,59.0,29.97,NW,315,4.0,4.0,50,0.00,,,0.00,WeatherTracker,2013-07-24 22:00:00,
2013-07-24 15:05:00,79.7,60.8,29.97,West,270,4.0,4.0,50,0.00,,,0.00,WeatherTracker,2013-07-24 22:05:00,
2013-07-24 15:15:00,81.1,62.6,29.97,NNW,337,2.0,4.0,51,0.00,,,0.00,WeatherTracker,2013-07-24 22:15:00,
2013-07-24 15:20:00,81.3,60.8,29.97,NW,315,3.0,4.0,50,0.00,,,0.00,WeatherTracker,2013-07-24 22:20:00,
2013-07-24 15:25:00,81.7,60.8,29.97,WNW,292,4.0,4.0,49,0.00,,,0.00,WeatherTracker,2013-07-24 22:25:00,
2013-07-24 15:30:00,82.4,62.6,29.97,West,270,2.0,3.0,49,0.00,,,0.00,WeatherTracker,2013-07-24 22:30:00,
2013-07-24 15:40:00,79.7,59.0,29.97,NW,315,4.0,4.0,49,0.00,,,0.00,WeatherTracker,2013-07-24 22:40:00,
2013-07-24 15:45:00,80.4,60.8,29.97,North,0,4.0,6.0,50,0.00,,,0.00,WeatherTracker,2013-07-24 22:45:00,
2013-07-24 15:50:00,80.2,60.8,29.94,NW,315,4.0,6.0,51,0.00,,,0.00,WeatherTracker,2013-07-24 22:50:00,
2013-07-24 16:00:00,79.9,60.8,29.94,NNE,22,4.0,4.0,51,0.00,,,0.00,WeatherTracker,2013-07-24 23:00:00,
2013-07-24 16:05:00,79.0,60.8,29.94,West,270,4.0,4.0,52,0.00,,,0.00,WeatherTracker,2013-07-24 23:05:00,
2013-07-24 16:15:00,76.3,59.0,29.94,WNW,292,4.0,4.0,56,0.00,,,0.00,WeatherTracker,2013-07-24 23:15:00,
2013-07-24 16:25:00,74.8,60.8,29.94,West,270,3.0,3.0,60,0.00,,,0.00,WeatherTracker,2013-07-24 23:25:00,
2013-07-24 16:30:00,75.7,60.8,29.94,WNW,292,2.0,3.0,61,0.00,,,0.00,WeatherTracker,2013-07-24 23:30:00,
2013-07-24 16:35:00,77.2,62.6,29.94,NNW,337,3.0,4.0,59,0.00,,,0.00,WeatherTracker,2013-07-24 23:35:00,
2013-07-24 16:45:00,79.3,62.6,29.94,NNW,337,4.0,4.0,56,0.00,,,0.00,WeatherTracker,2013-07-24 23:45:00,
2013-07-24 16:50:00,79.5,62.6,29.94,NW,315,3.0,4.0,54,0.00,,,0.00,WeatherTracker,2013-07-24 23:50:00,
2013-07-24 17:00:00,76.6,60.8,29.94,NNW,337,2.0,3.0,57,0.00,,,0.00,WeatherTracker,2013-07-25 00:00:00,
2013-07-24 17:05:00,76.6,60.8,29.97,NNW,337,2.0,2.0,58,0.00,,,0.00,WeatherTracker,2013-07-25 00:05:00,
2013-07-24 17:10:00,77.7,60.8,29.97,NNW,337,3.0,3.0,57,0.00,,,0.00,WeatherTracker,2013-07-25 00:10:00,
2013-07-24 17:15:00,79.2,62.6,29.97,NNW,337,3.0,4.0,55,0.00,,,0.00,WeatherTracker,2013-07-25 00:15:00,
2013-07-24 17:25:00,78.4,60.8,29.94,NNW,337,2.0,3.0,56,0.00,,,0.00,WeatherTracker,2013-07-25 00:25:00,
2013-07-24 17:35:00,77.7,60.8,29.94,NNW,337,3.0,3.0,55,0.00,,,0.00,WeatherTracker,2013-07-25 00:35:00,
2013-07-24 17:40:00,77.2,60.8,29.94,WNW,292,3.0,4.0,57,0.00,,,0.00,WeatherTracker,2013-07-25 00:40:00,
2013-07-24 17:50:00,78.1,60.8,29.94,WNW,292,3.0,4.0,56,0.00,,,0.00,WeatherTracker,2013-07-25 00:50:00,
2013-07-24 18:00:00,78.3,60.8,29.94,WNW,292,4.0,4.0,56,0.00,,,0.00,WeatherTracker,2013-07-25 01:00:00,
2013-07-24 18:10:00,78.8,60.8,29.97,WNW,292,2.0,3.0,55,0.00,,,0.00,WeatherTracker,2013-07-25 01:10:00,
2013-07-24 18:15:00,77.9,60.8,29.97,North,0,1.0,2.0,56,0.00,,,0.00,WeatherTracker,2013-07-25 01:15:00,
2013-07-24 18:20:00,78.3,60.8,29.94,NNW,337,2.0,3.0,56,0.00,,,0.00,WeatherTracker,2013-07-25 01:20:00,
2013-07-24 18:30:00,77.2,60.8,29.94,NW,315,3.0,3.0,56,0.00,,,0.00,WeatherTracker,2013-07-25 01:30:00,
2013-07-24 18:35:00,77.0,60.8,29.94,NW,315,3.0,3.0,57,0.00,,,0.00,WeatherTracker,2013-07-25 01:35:00,
2013-07-24 18:45:00,76.3,60.8,29.94,NW,315,2.0,5.0,58,0.00,,,0.00,WeatherTracker,2013-07-25 01:45:00,
2013-07-24 18:50:00,76.3,60.8,29.94,WNW,292,1.0,1.0,59,0.00,,,0.00,WeatherTracker,2013-07-25 01:50:00,
2013-07-24 18:55:00,76.3,60.8,29.94,NNW,337,2.0,2.0,59,0.00,,,0.00,WeatherTracker,2013-07-25 01:55:00,
2013-07-24 19:00:00,76.3,60.8,29.94,NNW,337,1.0,1.0,59,0.00,,,0.00,WeatherTracker,2013-07-25 02:00:00,
2013-07-24 19:10:00,76.1,60.8,29.94,NW,315,0.0,1.0,58,0.00,,,0.00,WeatherTracker,2013-07-25 02:10:00,
2013-07-24 19:20:00,76.5,60.8,29.94,NW,315,2.0,2.0,58,0.00,,,0.00,WeatherTracker,2013-07-25 02:20:00,
2013-07-24 19:25:00,76.3,60.8,29.94,WNW,292,0.0,1.0,58,0.00,,,0.00,WeatherTracker,2013-07-25 02:25:00,
2013-07-24 19:30:00,76.6,60.8,29.94,NNE,22,0.0,0.0,58,0.00,,,0.00,WeatherTracker,2013-07-25 02:30:00,
2013-07-24 19:35:00,76.6,60.8,29.94,WNW,292,0.0,2.0,58,0.00,,,0.00,WeatherTracker,2013-07-25 02:35:00,
2013-07-24 19:45:00,71.8,57.2,29.94,NW,315,2.0,2.0,62,0.00,,,0.00,WeatherTracker,2013-07-25 02:45:00,
2013-07-24 19:55:00,70.3,59.0,29.94,NNW,337,0.0,0.0,66,0.00,,,0.00,WeatherTracker,2013-07-25 02:55:00,
2013-07-24 20:00:00,69.8,59.0,29.94,NW,315,3.0,3.0,68,0.00,,,0.00,WeatherTracker,2013-07-25 03:00:00,
2013-07-24 20:10:00,69.1,59.0,29.94,NNW,337,0.0,0.0,70,0.00,,,0.00,WeatherTracker,2013-07-25 03:10:00,
2013-07-24 20:20:00,68.5,59.0,29.94,North,0,0.0,0.0,71,0.00,,,0.00,WeatherTracker,2013-07-25 03:20:00,
2013-07-24 20:25:00,68.2,59.0,29.94,North,0,0.0,0.0,72,0.00,,,0.00,WeatherTracker,2013-07-25 03:25:00,
2013-07-24 20:30:00,67.8,59.0,29.94,NNE,22,0.0,0.0,73,0.00,,,0.00,WeatherTracker,2013-07-25 03:30:00,
2013-07-24 20:45:00,66.9,59.0,29.91,NNE,22,0.0,0.0,74,0.00,,,0.00,WeatherTracker,2013-07-25 03:45:00,
2013-07-24 20:55:00,66.4,59.0,29.91,NNE,22,0.0,0.0,76,0.00,,,0.00,WeatherTracker,2013-07-25 03:55:00,
2013-07-24 21:01:00,66.0,59.0,29.91,NNE,22,0.0,0.0,78,0.00,,,0.00,WeatherTracker,2013-07-25 04:01:00,
2013-07-24 21:05:00,65.7,59.0,29.94,NNE,22,0.0,0.0,78,0.00,,,0.00,WeatherTracker,2013-07-25 04:05:00,
2013-07-24 21:10:00,65.5,59.0,29.94,NNE,22,0.0,0.0,79,0.00,,,0.00,WeatherTracker,2013-07-25 04:10:00,
2013-07-24 21:15:00,64.9,59.0,29.94,NNE,22,0.0,0.0,80,0.00,,,0.00,WeatherTracker,2013-07-25 04:15:00,
2013-07-24 21:20:00,64.8,59.0,29.91,NNE,22,0.0,0.0,81,0.00,,,0.00,WeatherTracker,2013-07-25 04:20:00,
2013-07-24 21:30:00,64.2,59.0,29.91,NNE,22,0.0,0.0,82,0.00,,,0.00,WeatherTracker,2013-07-25 04:30:00,
2013-07-24 21:40:00,63.9,59.0,29.94,NNE,22,0.0,0.0,83,0.00,,,0.00,WeatherTracker,2013-07-25 04:40:00,
2013-07-24 21:45:00,63.7,59.0,29.94,NNE,22,0.0,0.0,83,0.00,,,0.00,WeatherTracker,2013-07-25 04:45:00,
2013-07-24 21:50:00,63.5,59.0,29.94,SE,135,0.0,0.0,84,0.00,,,0.00,WeatherTracker,2013-07-25 04:50:00,
2013-07-24 21:55:00,63.1,59.0,29.94,SE,135,0.0,0.0,84,0.00,,,0.00,WeatherTracker,2013-07-25 04:55:00,
2013-07-24 22:05:00,63.0,59.0,29.94,SE,135,0.0,0.0,85,0.00,,,0.00,WeatherTracker,2013-07-25 05:05:00,
2013-07-24 22:15:00,62.6,59.0,29.94,SE,135,0.0,0.0,86,0.00,,,0.00,WeatherTracker,2013-07-25 05:15:00,
2013-07-24 22:20:00,62.2,59.0,29.94,SE,135,0.0,0.0,87,0.00,,,0.00,WeatherTracker,2013-07-25 05:20:00,
2013-07-24 22:25:00,62.1,59.0,29.94,SE,135,0.0,0.0,87,0.00,,,0.00,WeatherTracker,2013-07-25 05:25:00,
2013-07-24 22:30:00,61.9,59.0,29.94,ESE,112,0.0,0.0,87,0.00,,,0.00,WeatherTracker,2013-07-25 05:30:00,
2013-07-24 22:40:00,61.5,57.2,29.94,SE,135,0.0,0.0,87,0.00,,,0.00,WeatherTracker,2013-07-25 05:40:00,
2013-07-24 22:50:00,61.3,57.2,29.94,SE,135,0.0,0.0,87,0.00,,,0.00,WeatherTracker,2013-07-25 05:50:00,
2013-07-24 22:55:00,61.2,57.2,29.94,SE,135,0.0,0.0,87,0.00,,,0.00,WeatherTracker,2013-07-25 05:55:00,
2013-07-24 23:00:00,61.0,57.2,29.94,ESE,112,0.0,0.0,87,0.00,,,0.00,WeatherTracker,2013-07-25 06:00:00,
2013-07-24 23:05:00,60.8,57.2,29.97,SE,135,0.0,0.0,87,0.00,,,0.00,WeatherTracker,2013-07-25 06:05:00,
2013-07-24 23:15:00,60.6,57.2,29.97,SE,135,0.0,0.0,88,0.00,,,0.00,WeatherTracker,2013-07-25 06:15:00,
2013-07-24 23:25:00,60.3,57.2,29.97,SE,135,0.0,0.0,88,0.00,,,0.00,WeatherTracker,2013-07-25 06:25:00,
2013-07-24 23:30:00,60.1,57.2,29.97,SE,135,0.0,0.0,88,0.00,,,0.00,WeatherTracker,2013-07-25 06:30:00,
2013-07-24 23:35:00,60.1,57.2,29.94,ESE,112,0.0,0.0,87,0.00,,,0.00,WeatherTracker,2013-07-25 06:35:00,
2013-07-24 23:40:00,59.9,57.2,29.94,SE,135,0.0,0.0,87,0.00,,,0.00,WeatherTracker,2013-07-25 06:40:00,
2013-07-24 23:50:00,59.7,55.4,29.94,SE,135,0.0,0.0,87,0.00,,,0.00,WeatherTracker,2013-07-25 06:50:00,